createdAt,value
2022-12-03T00:01:34.236Z,1.88
2022-12-03T00:04:03.150Z,1.95
2022-12-03T00:06:34.901Z,1.99
2022-12-03T00:09:04.456Z,1.89
2022-12-03T00:11:34.380Z,1.84
2022-12-03T00:14:03.944Z,1.82
2022-12-03T00:16:33.232Z,1.96
2022-12-03T00:19:01.813Z,1.83
2022-12-03T00:21:32.130Z,1.81
2022-12-03T00:24:01.334Z,1.86
2022-12-03T00:26:29.511Z,2.07
2022-12-03T00:28:58.707Z,2.07
2022-12-03T00:31:27.739Z,1.94
2022-12-03T00:33:56.066Z,1.85
2022-12-03T00:36:24.709Z,1.81
2022-12-03T00:38:57.156Z,1.88
2022-12-03T00:41:25.287Z,1.93
2022-12-03T00:43:57.503Z,2.01
2022-12-03T00:46:25.808Z,1.99
2022-12-03T00:48:55.096Z,1.89
2022-12-03T00:51:23.352Z,1.93
2022-12-03T00:53:53.297Z,2.02
2022-12-03T00:56:24.962Z,1.97
2022-12-03T00:58:53.465Z,1.94
2022-12-03T01:01:21.729Z,1.85
2022-12-03T01:03:50.013Z,1.87
2022-12-03T01:06:20.925Z,2.03
2022-12-03T01:08:49.516Z,2.03
2022-12-03T01:11:41.639Z,1.99
2022-12-03T01:14:14.690Z,1.97
2022-12-03T01:16:43.571Z,1.95
2022-12-03T01:19:15.798Z,1.97
2022-12-03T01:21:45.947Z,2.01
2022-12-03T01:24:15.687Z,2.02
2022-12-03T01:26:43.884Z,2.00
2022-12-03T01:29:13.566Z,2.14
2022-12-03T01:31:59.253Z,2.03
2022-12-03T01:34:27.988Z,2.10
2022-12-03T01:36:56.964Z,2.13
2022-12-03T01:39:25.971Z,2.03
2022-12-03T01:41:55.603Z,1.99
2022-12-03T01:44:31.848Z,1.99
2022-12-03T01:47:03.636Z,1.95
2022-12-03T01:49:38.019Z,1.96
2022-12-03T01:52:07.648Z,1.99
2022-12-03T01:54:44.628Z,1.98
2022-12-03T01:57:21.152Z,1.96
2022-12-03T01:59:51.782Z,1.98
2022-12-03T02:02:24.763Z,1.97
2022-12-03T02:04:54.531Z,1.99
2022-12-03T02:07:28.004Z,1.98
2022-12-03T02:09:59.706Z,1.98
2022-12-03T02:12:32.793Z,2.02
2022-12-03T02:15:03.585Z,1.97
2022-12-03T02:17:32.905Z,1.88
2022-12-03T02:20:02.977Z,1.95
2022-12-03T02:22:41.461Z,2.09
2022-12-03T02:25:13.500Z,1.99
2022-12-03T02:27:43.636Z,1.95
2022-12-03T02:30:15.178Z,1.92
2022-12-03T02:32:45.602Z,1.93
2022-12-03T02:35:15.946Z,2.02
2022-12-03T02:37:46.160Z,1.90
2022-12-03T02:40:22.468Z,1.98
2022-12-03T02:42:54.143Z,1.97
2022-12-03T02:45:26.234Z,1.96
2022-12-03T02:47:58.791Z,1.94
2022-12-03T02:50:33.298Z,1.96
2022-12-03T02:53:04.541Z,1.96
2022-12-03T02:55:43.798Z,1.89
2022-12-03T02:58:13.580Z,1.96
2022-12-03T03:00:43.496Z,1.93
2022-12-03T03:03:12.283Z,1.98
2022-12-03T03:05:41.834Z,1.93
2022-12-03T03:08:12.897Z,1.89
2022-12-03T03:10:43.825Z,2.03
2022-12-03T03:13:14.262Z,1.97
2022-12-03T03:15:44.334Z,1.96
2022-12-03T03:18:15.491Z,1.95
2022-12-03T03:20:44.819Z,1.95
2022-12-03T03:23:18.255Z,1.89
2022-12-03T03:25:50.636Z,1.95
2022-12-03T03:28:20.554Z,1.92
2022-12-03T03:30:50.780Z,1.92
2022-12-03T03:33:19.751Z,1.93
2022-12-03T03:35:50.020Z,1.98
2022-12-03T03:38:20.809Z,1.96
2022-12-03T03:40:52.632Z,2.05
2022-12-03T03:43:22.062Z,1.99
2022-12-03T03:45:51.501Z,1.97
2022-12-03T03:48:22.428Z,2.05
2022-12-03T03:50:51.851Z,2.00
2022-12-03T03:53:20.906Z,2.10
2022-12-03T03:55:51.220Z,2.03
2022-12-03T03:58:20.605Z,2.04
2022-12-03T04:00:49.059Z,1.92
2022-12-03T04:03:18.096Z,1.96
2022-12-03T04:05:46.815Z,2.09
2022-12-03T04:08:17.508Z,1.97
2022-12-03T04:11:03.326Z,1.97
2022-12-03T04:13:33.230Z,1.93
2022-12-03T04:16:01.235Z,2.14
2022-12-03T04:18:44.769Z,1.99
2022-12-03T04:21:32.912Z,1.94
2022-12-03T04:24:02.617Z,1.94
2022-12-03T04:26:49.223Z,1.87
2022-12-03T04:29:21.856Z,1.88
2022-12-03T04:32:16.179Z,1.85
2022-12-03T04:35:02.138Z,1.80
2022-12-03T04:37:30.612Z,2.12
2022-12-03T04:39:58.827Z,1.89
2022-12-03T04:42:26.942Z,1.85
2022-12-03T04:44:58.526Z,1.92
2022-12-03T04:47:26.927Z,1.94
2022-12-03T04:49:55.378Z,1.89
2022-12-03T04:52:25.113Z,2.02
2022-12-03T04:54:53.761Z,1.93
2022-12-03T04:57:22.133Z,1.89
2022-12-03T04:59:51.947Z,1.94
2022-12-03T05:02:21.421Z,1.89
2022-12-03T05:04:49.514Z,1.95
2022-12-03T05:07:18.087Z,2.08
2022-12-03T05:09:46.238Z,2.03
2022-12-03T05:12:15.296Z,1.97
2022-12-03T05:14:43.919Z,1.99
2022-12-03T05:17:12.716Z,1.98
2022-12-03T05:20:00.313Z,1.99
2022-12-03T05:22:28.410Z,2.03
2022-12-03T05:24:58.305Z,2.02
2022-12-03T05:27:26.765Z,1.94
2022-12-03T05:29:57.023Z,1.89
2022-12-03T05:32:26.661Z,1.89
2022-12-03T05:34:56.517Z,2.09
2022-12-03T05:37:25.393Z,2.00
2022-12-03T05:39:54.790Z,1.90
2022-12-03T05:42:40.956Z,1.96
2022-12-03T05:45:10.702Z,1.90
2022-12-03T05:47:41.960Z,2.01
2022-12-03T05:50:12.704Z,1.89
2022-12-03T05:52:41.445Z,2.05
2022-12-03T05:55:10.258Z,1.88
2022-12-03T05:57:39.078Z,1.98
2022-12-03T06:00:14.403Z,1.87
2022-12-03T06:02:43.700Z,1.94
2022-12-03T06:05:15.364Z,1.91
2022-12-03T06:07:44.370Z,1.87
2022-12-03T06:10:16.773Z,1.89
2022-12-03T06:12:45.310Z,1.93
2022-12-03T06:15:15.586Z,1.88
2022-12-03T06:17:43.959Z,1.78
2022-12-03T06:20:15.773Z,1.77
2022-12-03T06:22:44.704Z,1.73
2022-12-03T06:25:13.500Z,1.81
2022-12-03T06:27:41.880Z,1.85
2022-12-03T06:30:13.794Z,2.05
2022-12-03T06:32:42.071Z,1.88
2022-12-03T06:35:10.856Z,1.78
2022-12-03T06:37:40.306Z,1.83
2022-12-03T06:40:09.693Z,1.83
2022-12-03T06:42:38.682Z,1.83
2022-12-03T06:45:07.723Z,1.78
2022-12-03T06:47:36.100Z,1.66
2022-12-03T06:50:05.120Z,1.64
2022-12-03T06:52:34.636Z,1.69
2022-12-03T06:55:04.980Z,1.77
2022-12-03T06:57:34.581Z,1.72
2022-12-03T07:00:03.549Z,1.70
2022-12-03T07:02:32.014Z,1.72
2022-12-03T07:05:00.536Z,1.63
2022-12-03T07:07:36.219Z,1.67
2022-12-03T07:10:07.220Z,1.63
2022-12-03T07:12:35.634Z,1.72
2022-12-03T07:15:05.581Z,1.79
2022-12-03T07:17:34.162Z,1.65
2022-12-03T07:20:05.576Z,1.63
2022-12-03T07:22:35.957Z,1.63
2022-12-03T07:25:06.787Z,1.56
2022-12-03T07:27:38.646Z,1.65
2022-12-03T07:30:08.688Z,1.64
2022-12-03T07:32:37.039Z,1.63
2022-12-03T07:35:07.829Z,1.65
2022-12-03T07:37:36.432Z,1.81
2022-12-03T07:40:07.842Z,1.79
2022-12-03T07:42:36.000Z,1.82
2022-12-03T07:45:07.941Z,2.01
2022-12-03T07:47:36.170Z,2.00
2022-12-03T07:50:04.772Z,2.11
2022-12-03T07:52:33.356Z,2.18
2022-12-03T07:55:01.566Z,2.11
2022-12-03T07:57:31.661Z,2.19
2022-12-03T07:59:59.960Z,2.28
2022-12-03T08:02:28.928Z,2.38
2022-12-03T08:04:59.846Z,2.28
2022-12-03T08:07:28.519Z,2.29
2022-12-03T08:09:57.083Z,2.31
2022-12-03T08:12:39.926Z,2.35
2022-12-03T08:15:15.661Z,2.38
2022-12-03T08:17:45.732Z,2.43
2022-12-03T08:20:17.209Z,2.52
2022-12-03T08:22:47.978Z,2.55
2022-12-03T08:25:21.326Z,2.72
2022-12-03T08:27:50.333Z,2.66
2022-12-03T08:30:21.795Z,2.59
2022-12-03T08:32:51.755Z,2.67
2022-12-03T08:35:24.472Z,2.74
2022-12-03T08:38:00.520Z,2.78
2022-12-03T08:40:35.769Z,2.84
2022-12-03T08:43:14.904Z,3.07
2022-12-03T08:45:44.721Z,2.98
2022-12-03T08:48:33.085Z,3.06
2022-12-03T08:51:04.928Z,3.05
2022-12-03T08:53:36.190Z,3.08
2022-12-03T08:56:14.276Z,3.18
2022-12-03T08:58:44.834Z,3.16
2022-12-03T09:01:34.214Z,3.26
2022-12-03T09:04:38.737Z,3.23
2022-12-03T09:07:08.671Z,3.26
2022-12-03T09:09:37.970Z,3.40
2022-12-03T09:12:07.081Z,3.34
2022-12-03T09:14:35.413Z,3.28
2022-12-03T09:17:06.958Z,3.45
2022-12-03T09:19:35.423Z,3.64
2022-12-03T09:22:03.721Z,3.72
2022-12-03T09:24:34.645Z,3.70
2022-12-03T09:27:03.036Z,3.73
2022-12-03T09:29:31.142Z,3.65
2022-12-03T09:31:59.759Z,3.69
2022-12-03T09:34:30.877Z,3.79
2022-12-03T09:36:58.899Z,3.72
2022-12-03T09:39:27.096Z,3.91
2022-12-03T09:41:57.843Z,4.14
2022-12-03T09:44:27.604Z,4.34
2022-12-03T09:46:59.872Z,4.32
2022-12-03T09:49:31.454Z,4.23
2022-12-03T09:52:04.155Z,4.28
2022-12-03T09:54:33.895Z,4.05
2022-12-03T09:57:04.777Z,4.14
2022-12-03T09:59:35.157Z,4.23
2022-12-03T10:02:05.870Z,4.16
2022-12-03T10:04:35.974Z,4.04
2022-12-03T10:07:04.505Z,4.02
2022-12-03T10:09:36.713Z,3.87
2022-12-03T10:12:06.228Z,3.78
2022-12-03T10:14:41.240Z,3.79
2022-12-03T10:17:16.767Z,3.98
2022-12-03T10:19:47.515Z,4.07
2022-12-03T10:22:17.212Z,4.11
2022-12-03T10:24:45.653Z,4.26
2022-12-03T10:27:25.675Z,4.34
2022-12-03T10:29:59.182Z,4.28
2022-12-03T10:32:44.395Z,4.51
2022-12-03T10:35:16.475Z,4.46
2022-12-03T10:37:59.672Z,4.56
2022-12-03T10:40:30.486Z,4.53
2022-12-03T10:43:16.841Z,4.84
2022-12-03T10:45:47.355Z,4.87
2022-12-03T10:48:17.273Z,5.03
2022-12-03T10:50:52.598Z,5.07
2022-12-03T10:53:23.509Z,4.98
2022-12-03T10:55:58.714Z,4.81
2022-12-03T10:58:30.525Z,4.80
2022-12-03T11:01:02.699Z,4.93
2022-12-03T11:03:37.080Z,5.04
2022-12-03T11:06:16.275Z,4.98
2022-12-03T11:08:54.739Z,5.17
2022-12-03T11:11:28.968Z,5.12
2022-12-03T11:13:58.506Z,5.04
2022-12-03T11:17:04.493Z,5.12
2022-12-03T11:19:50.870Z,5.20
2022-12-03T11:22:29.131Z,5.20
2022-12-03T11:25:37.417Z,5.35
2022-12-03T11:28:48.261Z,5.33
2022-12-03T11:31:36.143Z,5.42
2022-12-03T11:34:49.450Z,5.54
2022-12-03T11:37:28.115Z,5.46
2022-12-03T11:40:05.841Z,5.58
2022-12-03T11:42:41.783Z,5.75
2022-12-03T11:45:29.585Z,5.45
2022-12-03T11:48:12.825Z,5.40
2022-12-03T11:50:44.717Z,5.37
2022-12-03T11:53:18.427Z,5.29
2022-12-03T11:56:06.007Z,5.34
2022-12-03T11:58:36.387Z,4.96
2022-12-03T12:01:07.286Z,5.00
2022-12-03T12:03:44.784Z,4.84
2022-12-03T12:06:16.214Z,4.68
2022-12-03T12:09:14.784Z,4.64
2022-12-03T12:12:54.614Z,4.49
2022-12-03T12:16:15.755Z,4.34
2022-12-03T12:18:45.777Z,4.29
2022-12-03T12:21:39.382Z,4.34
2022-12-03T12:24:40.771Z,4.28
2022-12-03T12:27:11.297Z,4.29
2022-12-03T12:29:47.814Z,4.22
2022-12-03T12:32:19.059Z,4.28
2022-12-03T12:34:49.861Z,4.35
2022-12-03T12:37:21.786Z,4.23
2022-12-03T12:39:59.669Z,4.11
2022-12-03T12:42:34.688Z,4.10
2022-12-03T12:45:14.137Z,4.05
2022-12-03T12:47:50.115Z,3.99
2022-12-03T12:50:20.244Z,4.05
2022-12-03T12:52:54.866Z,4.21
2022-12-03T12:55:25.444Z,4.11
2022-12-03T12:57:54.556Z,4.12
2022-12-03T13:00:27.415Z,4.09
2022-12-03T13:03:04.871Z,4.12
2022-12-03T13:05:39.494Z,4.18
2022-12-03T13:08:23.541Z,4.15
2022-12-03T13:10:55.063Z,3.86
2022-12-03T13:13:26.664Z,3.97
2022-12-03T13:16:01.587Z,4.03
2022-12-03T13:18:46.184Z,3.90
2022-12-03T13:21:37.848Z,3.94
2022-12-03T13:24:29.907Z,3.91
2022-12-03T13:27:03.901Z,3.85
2022-12-03T13:29:33.349Z,3.95
2022-12-03T13:32:11.035Z,3.93
2022-12-03T13:34:40.378Z,3.87
2022-12-03T13:37:15.457Z,3.92
2022-12-03T13:39:48.065Z,3.84
2022-12-03T13:42:43.116Z,3.90
2022-12-03T13:45:33.828Z,3.59
2022-12-03T13:48:04.123Z,3.66
2022-12-03T13:50:37.257Z,3.67
2022-12-03T13:53:16.984Z,3.71
2022-12-03T13:55:48.189Z,3.65
2022-12-03T13:58:20.236Z,3.63
2022-12-03T14:00:49.876Z,3.60
2022-12-03T14:03:18.171Z,3.57
2022-12-03T14:05:46.758Z,3.68
2022-12-03T14:08:15.408Z,3.77
2022-12-03T14:10:43.684Z,3.72
2022-12-03T14:13:12.495Z,3.58
2022-12-03T14:15:42.411Z,3.64
2022-12-03T14:18:11.345Z,3.61
2022-12-03T14:20:57.917Z,3.58
2022-12-03T14:23:26.449Z,3.59
2022-12-03T14:25:54.923Z,3.52
2022-12-03T14:28:23.629Z,3.44
2022-12-03T14:30:55.116Z,3.59
2022-12-03T14:33:26.277Z,3.52
2022-12-03T14:35:56.230Z,3.47
2022-12-03T14:38:26.165Z,3.48
2022-12-03T14:40:55.250Z,3.45
2022-12-03T14:43:23.741Z,3.50
2022-12-03T14:45:52.049Z,3.57
2022-12-03T14:48:24.347Z,3.43
2022-12-03T14:50:52.955Z,3.41
2022-12-03T14:53:27.071Z,3.33
2022-12-03T14:55:59.142Z,3.37
2022-12-03T14:58:28.032Z,3.35
2022-12-03T15:00:57.304Z,3.36
2022-12-03T15:03:27.892Z,3.28
2022-12-03T15:06:00.638Z,3.28
2022-12-03T15:08:30.967Z,3.20
2022-12-03T15:11:00.404Z,3.27
2022-12-03T15:13:30.705Z,3.31
2022-12-03T15:16:00.115Z,3.24
2022-12-03T15:18:31.196Z,3.16
2022-12-03T15:21:00.483Z,3.16
2022-12-03T15:23:32.745Z,3.11
2022-12-03T15:26:01.437Z,3.17
2022-12-03T15:28:30.624Z,3.15
2022-12-03T15:31:01.587Z,3.12
2022-12-03T15:33:31.462Z,3.17
2022-12-03T15:35:59.983Z,3.13
2022-12-03T15:38:29.875Z,3.27
2022-12-03T15:40:58.566Z,3.14
2022-12-03T15:43:27.868Z,3.18
2022-12-03T15:45:56.721Z,3.12
2022-12-03T15:48:24.914Z,3.24
2022-12-03T15:51:38.021Z,3.20
2022-12-03T15:54:07.612Z,3.12
2022-12-03T15:56:37.599Z,3.05
2022-12-03T15:59:07.594Z,2.99
2022-12-03T16:01:37.224Z,3.06
2022-12-03T16:04:07.465Z,2.98
2022-12-03T16:06:38.414Z,3.09
2022-12-03T16:09:09.420Z,3.00
2022-12-03T16:11:37.627Z,3.01
2022-12-03T16:14:06.170Z,2.99
2022-12-03T16:16:36.721Z,3.04
2022-12-03T16:19:05.509Z,3.11
2022-12-03T16:21:34.851Z,3.05
2022-12-03T16:24:03.877Z,3.01
2022-12-03T16:26:33.442Z,3.07
2022-12-03T16:29:02.266Z,3.04
2022-12-03T16:31:30.977Z,2.99
2022-12-03T16:34:03.824Z,3.15
2022-12-03T16:36:36.592Z,3.10
2022-12-03T16:39:08.706Z,3.05
2022-12-03T16:41:38.334Z,2.99
2022-12-03T16:44:07.968Z,3.01
2022-12-03T16:46:38.496Z,2.95
2022-12-03T16:49:08.461Z,3.01
2022-12-03T16:51:37.954Z,3.00
2022-12-03T16:54:06.547Z,2.93
2022-12-03T16:56:35.955Z,2.89
2022-12-03T16:59:08.563Z,2.89
2022-12-03T17:01:43.441Z,2.92
2022-12-03T17:04:12.900Z,2.91
2022-12-03T17:06:43.241Z,2.93
2022-12-03T17:09:11.633Z,3.06
2022-12-03T17:11:42.436Z,2.99
2022-12-03T17:14:15.863Z,3.01
2022-12-03T17:16:44.417Z,3.01
2022-12-03T17:19:13.747Z,2.98
2022-12-03T17:21:42.710Z,2.95
2022-12-03T17:24:14.870Z,2.90
2022-12-03T17:26:48.437Z,2.92
2022-12-03T17:29:21.973Z,2.93
2022-12-03T17:31:53.175Z,2.92
2022-12-03T17:34:23.842Z,2.88
2022-12-03T17:36:52.287Z,2.87
2022-12-03T17:39:22.411Z,2.86
2022-12-03T17:41:50.606Z,2.87
2022-12-03T17:44:21.238Z,2.83
2022-12-03T17:46:51.271Z,2.95
2022-12-03T17:49:50.499Z,2.90
2022-12-03T17:52:19.683Z,3.01
2022-12-03T17:55:09.921Z,2.98
2022-12-03T17:57:42.147Z,2.94
2022-12-03T18:00:13.215Z,2.93
2022-12-03T18:02:44.834Z,2.95
2022-12-03T18:05:14.405Z,3.00
2022-12-03T18:07:42.880Z,2.96
2022-12-03T18:10:12.686Z,2.94
2022-12-03T18:12:43.257Z,2.90
2022-12-03T18:15:14.753Z,2.87
2022-12-03T18:17:45.123Z,2.84
2022-12-03T18:20:14.652Z,2.91
2022-12-03T18:22:44.517Z,2.85
2022-12-03T18:25:14.693Z,2.83
2022-12-03T18:27:44.086Z,2.90
2022-12-03T18:30:13.471Z,2.89
2022-12-03T18:32:41.767Z,2.88
2022-12-03T18:35:11.926Z,2.87
2022-12-03T18:37:41.367Z,2.89
2022-12-03T18:40:13.635Z,2.81
2022-12-03T18:42:42.180Z,2.80
2022-12-03T18:45:13.001Z,2.82
2022-12-03T18:47:44.693Z,2.83
2022-12-03T18:50:14.851Z,2.85
2022-12-03T18:52:43.681Z,2.81
2022-12-03T18:55:19.383Z,2.90
2022-12-03T18:57:49.489Z,2.90
2022-12-03T19:00:18.436Z,2.87
2022-12-03T19:03:04.919Z,2.83
2022-12-03T19:05:36.355Z,2.78
2022-12-03T19:08:12.440Z,2.75
2022-12-03T19:10:41.358Z,2.80
2022-12-03T19:13:11.060Z,2.79
2022-12-03T19:15:40.097Z,2.77
2022-12-03T19:18:08.577Z,2.78
2022-12-03T19:20:41.232Z,2.83
2022-12-03T19:23:09.456Z,2.83
2022-12-03T19:25:39.249Z,2.88
2022-12-03T19:28:12.886Z,2.79
2022-12-03T19:30:47.870Z,2.79
2022-12-03T19:33:18.182Z,2.81
2022-12-03T19:35:48.308Z,2.77
2022-12-03T19:38:16.687Z,2.77
2022-12-03T19:40:44.868Z,2.74
2022-12-03T19:43:13.292Z,2.72
2022-12-03T19:45:42.447Z,2.72
2022-12-03T19:48:10.631Z,2.71
2022-12-03T19:50:39.756Z,2.74
2022-12-03T19:53:10.111Z,2.75
2022-12-03T19:55:39.546Z,2.71
2022-12-03T19:58:07.788Z,2.68
2022-12-03T20:00:36.952Z,2.80
2022-12-03T20:03:09.154Z,2.72
2022-12-03T20:05:39.188Z,2.70
2022-12-03T20:08:09.766Z,2.69
2022-12-03T20:10:39.780Z,2.72
2022-12-03T20:13:08.037Z,2.67
2022-12-03T20:15:37.813Z,2.71
2022-12-03T20:18:05.918Z,2.73
2022-12-03T20:20:34.684Z,2.77
2022-12-03T20:23:05.679Z,2.68
2022-12-03T20:25:37.731Z,2.74
2022-12-03T20:28:06.301Z,2.76
2022-12-03T20:30:34.908Z,2.64
2022-12-03T20:33:07.507Z,2.57
2022-12-03T20:35:35.702Z,2.51
2022-12-03T20:38:04.144Z,2.57
2022-12-03T20:40:36.274Z,2.61
2022-12-03T20:43:06.343Z,2.54
2022-12-03T20:45:34.888Z,2.59
2022-12-03T20:48:03.223Z,2.53
2022-12-03T20:50:31.926Z,2.61
2022-12-03T20:53:23.229Z,2.48
2022-12-03T20:55:58.137Z,2.46
2022-12-03T20:58:28.791Z,2.45
2022-12-03T21:00:57.368Z,2.40
2022-12-03T21:03:26.550Z,2.39
2022-12-03T21:06:01.791Z,2.42
2022-12-03T21:08:40.992Z,2.41
2022-12-03T21:11:10.753Z,2.35
2022-12-03T21:13:41.376Z,2.37
2022-12-03T21:16:11.813Z,2.42
2022-12-03T21:18:41.278Z,2.35
2022-12-03T21:21:12.027Z,2.43
2022-12-03T21:23:40.736Z,2.42
2022-12-03T21:26:10.954Z,2.39
2022-12-03T21:28:43.209Z,2.35
2022-12-03T21:31:18.543Z,2.36
2022-12-03T21:33:46.928Z,2.40
2022-12-03T21:36:16.837Z,2.35
2022-12-03T21:38:46.260Z,2.39
2022-12-03T21:41:15.650Z,2.39
2022-12-03T21:43:47.789Z,2.43
2022-12-03T21:47:09.219Z,2.39
2022-12-03T21:49:05.379Z,2.41
2022-12-03T21:51:33.867Z,2.29
2022-12-03T21:54:02.297Z,2.35
2022-12-03T21:56:31.923Z,2.32
2022-12-03T21:59:01.594Z,2.30
2022-12-03T22:01:30.060Z,2.21
2022-12-03T22:03:58.595Z,2.34
2022-12-03T22:06:29.222Z,2.28
2022-12-03T22:08:57.697Z,2.31
2022-12-03T22:11:27.540Z,2.24
2022-12-03T22:13:59.379Z,2.14
2022-12-03T22:16:28.939Z,2.09
2022-12-03T22:18:59.734Z,2.05
2022-12-03T22:21:29.495Z,2.11
2022-12-03T22:23:57.749Z,2.14
2022-12-03T22:26:26.221Z,2.12
2022-12-03T22:28:55.255Z,2.04
2022-12-03T22:31:23.830Z,2.02
2022-12-03T22:33:54.499Z,2.18
2022-12-03T22:36:23.954Z,2.12
2022-12-03T22:38:52.043Z,2.10
2022-12-03T22:41:21.379Z,1.98
2022-12-03T22:43:49.896Z,1.98
2022-12-03T22:46:18.708Z,1.98
2022-12-03T22:48:48.469Z,1.96
2022-12-03T22:51:21.341Z,1.97
2022-12-03T22:53:54.771Z,1.97
2022-12-03T22:56:23.386Z,1.88
2022-12-03T22:58:51.840Z,1.89
2022-12-03T23:01:22.109Z,1.93
2022-12-03T23:03:51.457Z,1.96
2022-12-03T23:06:22.523Z,1.92
2022-12-03T23:08:51.298Z,1.93
2022-12-03T23:11:22.864Z,1.85
2022-12-03T23:13:51.132Z,1.88
2022-12-03T23:16:22.393Z,1.88
2022-12-03T23:18:51.425Z,1.89
2022-12-03T23:21:29.030Z,1.87
2022-12-03T23:23:58.437Z,1.92
2022-12-03T23:26:27.370Z,1.93
2022-12-03T23:28:56.128Z,2.00
2022-12-03T23:31:27.879Z,1.97
2022-12-03T23:33:57.955Z,2.18
2022-12-03T23:36:30.276Z,1.91
2022-12-03T23:38:58.635Z,1.85
2022-12-03T23:41:27.906Z,1.90
2022-12-03T23:43:57.865Z,1.82
2022-12-03T23:46:27.898Z,1.84
2022-12-03T23:48:58.339Z,1.96
2022-12-03T23:51:28.562Z,1.84
2022-12-03T23:53:57.980Z,1.82
2022-12-03T23:56:29.735Z,1.85
2022-12-03T23:58:58.803Z,1.84
